Main page
Satellite images Climate Cyclones Lightning AirportsFAQ Languages Contact Newsletter About
Weather : Europe Africa North America South America Asia Australia-Oceania Others

guangzhou-cn, Guangzhou, Guangzhou Baiyun International Airport

59287

latitude: , longitude: China, elevation: 23-10N m


METAR: ZGGG 212000Z 01005MPS CAVOK 15/11 Q1021 NOSIG